sensor_id;sensor_type;location;lat;lon;timestamp;P1;durP1;ratioP1;P2;durP2;ratioP2
27921;SDS011;15261;50.356;10.340;2023-05-16T05:42:01;12.85;;;11.60;;
27921;SDS011;15261;50.356;10.340;2023-05-16T05:44:30;13.80;;;12.50;;
27921;SDS011;15261;50.356;10.340;2023-05-16T05:46:56;16.50;;;11.75;;
27921;SDS011;15261;50.356;10.340;2023-05-16T05:49:25;12.35;;;11.15;;
27921;SDS011;15261;50.356;10.340;2023-05-16T05:51:51;11.85;;;10.65;;
27921;SDS011;15261;50.356;10.340;2023-05-16T05:54:18;11.57;;;10.38;;
27921;SDS011;15261;50.356;10.340;2023-05-16T05:56:43;11.60;;;10.13;;
27921;SDS011;15261;50.356;10.340;2023-05-16T05:59:09;12.25;;;10.15;;
27921;SDS011;15261;50.356;10.340;2023-05-16T06:01:34;11.57;;;10.50;;
27921;SDS011;15261;50.356;10.340;2023-05-16T06:04:00;10.80;;;9.80;;
27921;SDS011;15261;50.356;10.340;2023-05-16T06:06:26;10.68;;;9.77;;
27921;SDS011;15261;50.356;10.340;2023-05-16T06:08:53;10.32;;;9.32;;
27921;SDS011;15261;50.356;10.340;2023-05-16T06:11:18;11.25;;;10.15;;
27921;SDS011;15261;50.356;10.340;2023-05-16T06:13:45;10.35;;;9.45;;
27921;SDS011;15261;50.356;10.340;2023-05-16T06:16:11;11.52;;;10.43;;
27921;SDS011;15261;50.356;10.340;2023-05-16T06:18:36;11.43;;;10.43;;
27921;SDS011;15261;50.356;10.340;2023-05-16T06:21:02;11.10;;;10.18;;
27921;SDS011;15261;50.356;10.340;2023-05-16T06:23:28;11.82;;;10.55;;
27921;SDS011;15261;50.356;10.340;2023-05-16T06:25:53;11.38;;;10.32;;
27921;SDS011;15261;50.356;10.340;2023-05-16T06:28:19;12.35;;;10.52;;
27921;SDS011;15261;50.356;10.340;2023-05-16T06:30:44;13.15;;;10.10;;
27921;SDS011;15261;50.356;10.340;2023-05-16T06:33:11;11.13;;;10.10;;
27921;SDS011;15261;50.356;10.340;2023-05-16T06:35:38;10.25;;;9.25;;
27921;SDS011;15261;50.356;10.340;2023-05-16T06:38:04;12.25;;;10.40;;
27921;SDS011;15261;50.356;10.340;2023-05-16T06:40:30;10.07;;;9.07;;
27921;SDS011;15261;50.356;10.340;2023-05-16T06:42:55;10.25;;;9.35;;
27921;SDS011;15261;50.356;10.340;2023-05-16T06:45:22;10.90;;;9.43;;
27921;SDS011;15261;50.356;10.340;2023-05-16T06:47:48;10.20;;;9.05;;
27921;SDS011;15261;50.356;10.340;2023-05-16T06:50:13;9.80;;;8.90;;
27921;SDS011;15261;50.356;10.340;2023-05-16T06:52:39;9.52;;;8.73;;
27921;SDS011;15261;50.356;10.340;2023-05-16T06:55:06;10.38;;;9.32;;
27921;SDS011;15261;50.356;10.340;2023-05-16T06:57:32;11.05;;;10.05;;
27921;SDS011;15261;50.356;10.340;2023-05-16T06:59:57;11.07;;;10.07;;
27921;SDS011;15261;50.356;10.340;2023-05-16T07:02:23;10.77;;;9.77;;
27921;SDS011;15261;50.356;10.340;2023-05-16T07:04:48;10.27;;;9.38;;
27921;SDS011;15261;50.356;10.340;2023-05-16T07:07:14;10.57;;;9.65;;
27921;SDS011;15261;50.356;10.340;2023-05-16T07:09:40;11.20;;;10.10;;
27921;SDS011;15261;50.356;10.340;2023-05-16T07:12:05;10.65;;;9.65;;
27921;SDS011;15261;50.356;10.340;2023-05-16T07:14:31;12.02;;;10.50;;
27921;SDS011;15261;50.356;10.340;2023-05-16T07:16:57;10.48;;;9.52;;
27921;SDS011;15261;50.356;10.340;2023-05-16T07:19:22;11.23;;;10.18;;
27921;SDS011;15261;50.356;10.340;2023-05-16T07:21:48;10.95;;;9.82;;
27921;SDS011;15261;50.356;10.340;2023-05-16T07:24:13;11.50;;;10.40;;
27921;SDS011;15261;50.356;10.340;2023-05-16T07:26:39;11.95;;;10.85;;
27921;SDS011;15261;50.356;10.340;2023-05-16T07:29:04;12.00;;;10.75;;
27921;SDS011;15261;50.356;10.340;2023-05-16T07:31:30;11.95;;;10.80;;
27921;SDS011;15261;50.356;10.340;2023-05-16T07:33:56;13.05;;;11.70;;
27921;SDS011;15261;50.356;10.340;2023-05-16T07:36:21;11.98;;;10.88;;
27921;SDS011;15261;50.356;10.340;2023-05-16T07:38:47;12.48;;;11.00;;
27921;SDS011;15261;50.356;10.340;2023-05-16T07:41:12;12.00;;;10.80;;
27921;SDS011;15261;50.356;10.340;2023-05-16T07:43:38;14.50;;;10.57;;
27921;SDS011;15261;50.356;10.340;2023-05-16T07:46:04;10.25;;;9.02;;
27921;SDS011;15261;50.356;10.340;2023-05-16T07:48:29;10.43;;;9.43;;
27921;SDS011;15261;50.356;10.340;2023-05-16T07:50:55;9.43;;;8.45;;
27921;SDS011;15261;50.356;10.340;2023-05-16T07:53:21;9.27;;;8.38;;
27921;SDS011;15261;50.356;10.340;2023-05-16T07:55:47;9.68;;;8.63;;
27921;SDS011;15261;50.356;10.340;2023-05-16T07:58:13;10.00;;;9.00;;
27921;SDS011;15261;50.356;10.340;2023-05-16T08:00:39;13.00;;;8.90;;
27921;SDS011;15261;50.356;10.340;2023-05-16T08:03:05;9.55;;;8.50;;
27921;SDS011;15261;50.356;10.340;2023-05-16T08:05:31;8.35;;;7.55;;
27921;SDS011;15261;50.356;10.340;2023-05-16T08:07:56;12.25;;;8.23;;
27921;SDS011;15261;50.356;10.340;2023-05-16T08:10:22;13.40;;;7.40;;
27921;SDS011;15261;50.356;10.340;2023-05-16T08:12:48;7.65;;;6.57;;
27921;SDS011;15261;50.356;10.340;2023-05-16T08:15:14;7.68;;;6.20;;
27921;SDS011;15261;50.356;10.340;2023-05-16T08:17:39;11.32;;;6.28;;
27921;SDS011;15261;50.356;10.340;2023-05-16T08:20:05;6.75;;;6.13;;
27921;SDS011;15261;50.356;10.340;2023-05-16T08:22:32;8.82;;;5.72;;
27921;SDS011;15261;50.356;10.340;2023-05-16T08:24:57;6.07;;;5.47;;
27921;SDS011;15261;50.356;10.340;2023-05-16T08:27:24;6.97;;;5.90;;
27921;SDS011;15261;50.356;10.340;2023-05-16T08:29:50;6.47;;;5.88;;
27921;SDS011;15261;50.356;10.340;2023-05-16T08:32:16;6.40;;;5.78;;
27921;SDS011;15261;50.356;10.340;2023-05-16T08:34:41;7.05;;;5.38;;
27921;SDS011;15261;50.356;10.340;2023-05-16T08:37:07;6.72;;;5.75;;
27921;SDS011;15261;50.356;10.340;2023-05-16T08:39:33;5.88;;;5.28;;
27921;SDS011;15261;50.356;10.340;2023-05-16T08:41:58;6.65;;;5.40;;
27921;SDS011;15261;50.356;10.340;2023-05-16T08:44:24;5.22;;;4.80;;
27921;SDS011;15261;50.356;10.340;2023-05-16T08:46:51;4.80;;;4.40;;
27921;SDS011;15261;50.356;10.340;2023-05-16T08:49:17;5.07;;;4.10;;
27921;SDS011;15261;50.356;10.340;2023-05-16T08:51:45;3.95;;;3.65;;
27921;SDS011;15261;50.356;10.340;2023-05-16T08:54:12;4.05;;;3.40;;
27921;SDS011;15261;50.356;10.340;2023-05-16T08:56:40;3.92;;;3.00;;
27921;SDS011;15261;50.356;10.340;2023-05-16T08:59:06;4.65;;;2.63;;
27921;SDS011;15261;50.356;10.340;2023-05-16T09:01:32;4.05;;;2.13;;
27921;SDS011;15261;50.356;10.340;2023-05-16T09:03:58;3.28;;;2.20;;
27921;SDS011;15261;50.356;10.340;2023-05-16T09:06:25;2.70;;;2.50;;
27921;SDS011;15261;50.356;10.340;2023-05-16T09:08:51;2.90;;;2.70;;
27921;SDS011;15261;50.356;10.340;2023-05-16T09:11:18;2.67;;;2.47;;
27921;SDS011;15261;50.356;10.340;2023-05-16T09:13:43;2.25;;;2.15;;
27921;SDS011;15261;50.356;10.340;2023-05-16T09:16:16;2.22;;;2.10;;
27921;SDS011;15261;50.356;10.340;2023-05-16T09:18:44;2.08;;;1.98;;
27921;SDS011;15261;50.356;10.340;2023-05-16T09:21:11;3.08;;;2.25;;
27921;SDS011;15261;50.356;10.340;2023-05-16T09:23:37;5.25;;;2.22;;
27921;SDS011;15261;50.356;10.340;2023-05-16T09:26:06;4.53;;;2.22;;
27921;SDS011;15261;50.356;10.340;2023-05-16T09:28:32;2.63;;;2.33;;
27921;SDS011;15261;50.356;10.340;2023-05-16T09:30:58;3.95;;;2.78;;
27921;SDS011;15261;50.356;10.340;2023-05-16T09:33:27;3.25;;;2.63;;
27921;SDS011;15261;50.356;10.340;2023-05-16T09:35:57;2.75;;;2.55;;
27921;SDS011;15261;50.356;10.340;2023-05-16T09:38:24;2.50;;;2.30;;
27921;SDS011;15261;50.356;10.340;2023-05-16T09:40:51;4.65;;;2.60;;
27921;SDS011;15261;50.356;10.340;2023-05-16T09:43:21;2.45;;;2.33;;
27921;SDS011;15261;50.356;10.340;2023-05-16T09:45:49;2.80;;;2.60;;
27921;SDS011;15261;50.356;10.340;2023-05-16T09:48:15;3.47;;;2.72;;
27921;SDS011;15261;50.356;10.340;2023-05-16T09:50:45;3.95;;;2.30;;
27921;SDS011;15261;50.356;10.340;2023-05-16T09:53:13;2.60;;;2.40;;
27921;SDS011;15261;50.356;10.340;2023-05-16T09:55:39;2.60;;;2.40;;
27921;SDS011;15261;50.356;10.340;2023-05-16T09:58:04;2.75;;;2.40;;
27921;SDS011;15261;50.356;10.340;2023-05-16T10:00:31;2.42;;;2.22;;
27921;SDS011;15261;50.356;10.340;2023-05-16T10:02:58;3.72;;;2.22;;
27921;SDS011;15261;50.356;10.340;2023-05-16T10:05:27;3.88;;;2.22;;
27921;SDS011;15261;50.356;10.340;2023-05-16T10:07:54;2.17;;;2.08;;
27921;SDS011;15261;50.356;10.340;2023-05-16T10:10:20;3.42;;;2.03;;
27921;SDS011;15261;50.356;10.340;2023-05-16T10:12:46;2.40;;;2.20;;
27921;SDS011;15261;50.356;10.340;2023-05-16T10:15:13;2.10;;;2.00;;
27921;SDS011;15261;50.356;10.340;2023-05-16T10:17:40;2.42;;;2.17;;
27921;SDS011;15261;50.356;10.340;2023-05-16T10:20:09;1.98;;;1.88;;
27921;SDS011;15261;50.356;10.340;2023-05-16T10:22:40;2.20;;;2.10;;
27921;SDS011;15261;50.356;10.340;2023-05-16T10:27:39;4.93;;;2.60;;
27921;SDS011;15261;50.356;10.340;2023-05-16T10:30:06;2.83;;;2.63;;
27921;SDS011;15261;50.356;10.340;2023-05-16T10:32:33;3.30;;;2.70;;
27921;SDS011;15261;50.356;10.340;2023-05-16T10:35:00;4.03;;;2.90;;
27921;SDS011;15261;50.356;10.340;2023-05-16T10:37:28;2.97;;;2.47;;
27921;SDS011;15261;50.356;10.340;2023-05-16T10:40:00;3.30;;;2.50;;
27921;SDS011;15261;50.356;10.340;2023-05-16T10:42:30;2.50;;;2.35;;
27921;SDS011;15261;50.356;10.340;2023-05-16T10:45:07;2.28;;;2.08;;
27921;SDS011;15261;50.356;10.340;2023-05-16T10:47:39;6.65;;;2.35;;
27921;SDS011;15261;50.356;10.340;2023-05-16T10:50:05;5.40;;;2.35;;
27921;SDS011;15261;50.356;10.340;2023-05-16T10:52:32;4.10;;;2.22;;
27921;SDS011;15261;50.356;10.340;2023-05-16T10:54:59;4.03;;;1.95;;
27921;SDS011;15261;50.356;10.340;2023-05-16T10:57:27;3.63;;;2.00;;
27921;SDS011;15261;50.356;10.340;2023-05-16T10:59:56;3.83;;;2.00;;
27921;SDS011;15261;50.356;10.340;2023-05-16T11:04:59;4.40;;;2.00;;
27921;SDS011;15261;50.356;10.340;2023-05-16T11:07:29;2.50;;;1.98;;
27921;SDS011;15261;50.356;10.340;2023-05-16T11:10:01;6.13;;;2.17;;
27921;SDS011;15261;50.356;10.340;2023-05-16T11:12:42;2.55;;;1.65;;
27921;SDS011;15261;50.356;10.340;2023-05-16T11:15:19;4.30;;;1.92;;
27921;SDS011;15261;50.356;10.340;2023-05-16T11:17:47;3.95;;;1.90;;
27921;SDS011;15261;50.356;10.340;2023-05-16T11:20:32;2.92;;;2.10;;
27921;SDS011;15261;50.356;10.340;2023-05-16T11:25:40;6.00;;;1.95;;
27921;SDS011;15261;50.356;10.340;2023-05-16T11:28:08;7.32;;;2.30;;
27921;SDS011;15261;50.356;10.340;2023-05-16T11:30:35;4.38;;;1.73;;
27921;SDS011;15261;50.356;10.340;2023-05-16T11:33:05;2.63;;;1.85;;
27921;SDS011;15261;50.356;10.340;2023-05-16T11:35:31;3.33;;;1.90;;
27921;SDS011;15261;50.356;10.340;2023-05-16T11:37:57;2.90;;;1.75;;
27921;SDS011;15261;50.356;10.340;2023-05-16T11:40:23;3.92;;;2.00;;
27921;SDS011;15261;50.356;10.340;2023-05-16T11:42:48;2.58;;;1.83;;
27921;SDS011;15261;50.356;10.340;2023-05-16T11:45:15;4.47;;;2.15;;
27921;SDS011;15261;50.356;10.340;2023-05-16T11:47:46;2.85;;;2.00;;
27921;SDS011;15261;50.356;10.340;2023-05-16T11:50:16;3.38;;;2.13;;
27921;SDS011;15261;50.356;10.340;2023-05-16T11:52:45;4.57;;;2.00;;
27921;SDS011;15261;50.356;10.340;2023-05-16T11:55:22;5.05;;;2.13;;
27921;SDS011;15261;50.356;10.340;2023-05-16T11:57:50;3.25;;;1.85;;
27921;SDS011;15261;50.356;10.340;2023-05-16T12:00:16;7.20;;;2.00;;
27921;SDS011;15261;50.356;10.340;2023-05-16T12:02:48;2.92;;;1.85;;
27921;SDS011;15261;50.356;10.340;2023-05-16T12:05:14;4.03;;;1.98;;
27921;SDS011;15261;50.356;10.340;2023-05-16T12:07:44;3.17;;;2.05;;
27921;SDS011;15261;50.356;10.340;2023-05-16T12:10:11;7.20;;;1.95;;
27921;SDS011;15261;50.356;10.340;2023-05-16T12:12:39;6.10;;;2.53;;
27921;SDS011;15261;50.356;10.340;2023-05-16T12:15:06;2.53;;;1.85;;
27921;SDS011;15261;50.356;10.340;2023-05-16T12:17:33;7.47;;;2.35;;
27921;SDS011;15261;50.356;10.340;2023-05-16T12:19:59;6.30;;;2.30;;
27921;SDS011;15261;50.356;10.340;2023-05-16T12:22:26;5.95;;;2.35;;
27921;SDS011;15261;50.356;10.340;2023-05-16T12:24:52;6.40;;;2.33;;
27921;SDS011;15261;50.356;10.340;2023-05-16T12:27:21;6.28;;;1.92;;
27921;SDS011;15261;50.356;10.340;2023-05-16T12:29:47;8.60;;;2.55;;
27921;SDS011;15261;50.356;10.340;2023-05-16T12:32:16;5.10;;;2.38;;
27921;SDS011;15261;50.356;10.340;2023-05-16T12:34:48;4.55;;;1.83;;
27921;SDS011;15261;50.356;10.340;2023-05-16T12:37:18;5.00;;;2.17;;
27921;SDS011;15261;50.356;10.340;2023-05-16T12:39:45;4.82;;;2.53;;
27921;SDS011;15261;50.356;10.340;2023-05-16T12:42:11;5.57;;;2.35;;
27921;SDS011;15261;50.356;10.340;2023-05-16T12:44:38;5.97;;;2.15;;
27921;SDS011;15261;50.356;10.340;2023-05-16T12:47:09;5.80;;;2.10;;
27921;SDS011;15261;50.356;10.340;2023-05-16T12:49:36;6.70;;;2.75;;
27921;SDS011;15261;50.356;10.340;2023-05-16T12:52:08;6.05;;;2.10;;
27921;SDS011;15261;50.356;10.340;2023-05-16T12:54:42;3.88;;;2.15;;
27921;SDS011;15261;50.356;10.340;2023-05-16T12:57:09;5.47;;;2.15;;
27921;SDS011;15261;50.356;10.340;2023-05-16T12:59:34;5.03;;;2.08;;
27921;SDS011;15261;50.356;10.340;2023-05-16T13:02:00;6.35;;;2.45;;
27921;SDS011;15261;50.356;10.340;2023-05-16T13:04:27;9.77;;;2.20;;
27921;SDS011;15261;50.356;10.340;2023-05-16T13:07:00;8.93;;;2.40;;
27921;SDS011;15261;50.356;10.340;2023-05-16T13:09:25;5.93;;;2.50;;
27921;SDS011;15261;50.356;10.340;2023-05-16T13:11:51;8.70;;;2.53;;
27921;SDS011;15261;50.356;10.340;2023-05-16T13:17:19;7.35;;;2.42;;
27921;SDS011;15261;50.356;10.340;2023-05-16T13:19:45;6.10;;;2.28;;
27921;SDS011;15261;50.356;10.340;2023-05-16T13:22:10;9.77;;;3.67;;
27921;SDS011;15261;50.356;10.340;2023-05-16T13:24:36;5.95;;;2.80;;
27921;SDS011;15261;50.356;10.340;2023-05-16T13:27:02;7.38;;;2.05;;
27921;SDS011;15261;50.356;10.340;2023-05-16T13:29:27;3.72;;;1.70;;
27921;SDS011;15261;50.356;10.340;2023-05-16T13:31:53;3.40;;;1.88;;
27921;SDS011;15261;50.356;10.340;2023-05-16T13:34:19;5.15;;;2.10;;
27921;SDS011;15261;50.356;10.340;2023-05-16T13:36:44;5.35;;;2.33;;
27921;SDS011;15261;50.356;10.340;2023-05-16T13:39:11;7.72;;;2.33;;
27921;SDS011;15261;50.356;10.340;2023-05-16T13:41:37;6.60;;;2.10;;
27921;SDS011;15261;50.356;10.340;2023-05-16T13:44:04;7.18;;;2.40;;
27921;SDS011;15261;50.356;10.340;2023-05-16T13:49:43;4.80;;;2.45;;
27921;SDS011;15261;50.356;10.340;2023-05-16T13:52:09;9.43;;;2.47;;
27921;SDS011;15261;50.356;10.340;2023-05-16T13:54:35;3.80;;;1.67;;
27921;SDS011;15261;50.356;10.340;2023-05-16T13:57:00;4.50;;;1.90;;
27921;SDS011;15261;50.356;10.340;2023-05-16T14:02:55;7.28;;;1.92;;
27921;SDS011;15261;50.356;10.340;2023-05-16T14:05:33;6.38;;;1.75;;
27921;SDS011;15261;50.356;10.340;2023-05-16T14:08:00;5.50;;;1.92;;
27921;SDS011;15261;50.356;10.340;2023-05-16T14:16:26;8.82;;;2.30;;
27921;SDS011;15261;50.356;10.340;2023-05-16T14:18:53;5.85;;;1.60;;
27921;SDS011;15261;50.356;10.340;2023-05-16T14:24:06;4.05;;;1.83;;
27921;SDS011;15261;50.356;10.340;2023-05-16T14:26:32;5.60;;;1.85;;
27921;SDS011;15261;50.356;10.340;2023-05-16T14:28:57;6.15;;;2.10;;
27921;SDS011;15261;50.356;10.340;2023-05-16T14:31:23;13.38;;;1.98;;
27921;SDS011;15261;50.356;10.340;2023-05-16T14:33:48;8.52;;;1.83;;
27921;SDS011;15261;50.356;10.340;2023-05-16T14:36:14;10.38;;;1.85;;
27921;SDS011;15261;50.356;10.340;2023-05-16T14:38:40;4.32;;;1.88;;
27921;SDS011;15261;50.356;10.340;2023-05-16T14:41:06;4.40;;;1.90;;
27921;SDS011;15261;50.356;10.340;2023-05-16T14:43:31;7.95;;;2.10;;
27921;SDS011;15261;50.356;10.340;2023-05-16T14:46:03;7.25;;;1.85;;
27921;SDS011;15261;50.356;10.340;2023-05-16T14:48:29;8.95;;;2.00;;
27921;SDS011;15261;50.356;10.340;2023-05-16T14:50:55;16.85;;;3.25;;
27921;SDS011;15261;50.356;10.340;2023-05-16T14:53:21;6.70;;;1.75;;
27921;SDS011;15261;50.356;10.340;2023-05-16T14:55:46;3.90;;;1.88;;
27921;SDS011;15261;50.356;10.340;2023-05-16T14:58:13;4.90;;;1.65;;
27921;SDS011;15261;50.356;10.340;2023-05-16T15:00:38;3.90;;;1.70;;
27921;SDS011;15261;50.356;10.340;2023-05-16T15:03:04;4.93;;;1.58;;
27921;SDS011;15261;50.356;10.340;2023-05-16T15:05:29;6.43;;;1.85;;
27921;SDS011;15261;50.356;10.340;2023-05-16T15:07:57;3.75;;;1.48;;
27921;SDS011;15261;50.356;10.340;2023-05-16T15:10:25;7.13;;;1.98;;
27921;SDS011;15261;50.356;10.340;2023-05-16T15:12:50;4.07;;;1.60;;
27921;SDS011;15261;50.356;10.340;2023-05-16T15:15:16;7.45;;;1.80;;
27921;SDS011;15261;50.356;10.340;2023-05-16T15:17:42;6.75;;;1.80;;
27921;SDS011;15261;50.356;10.340;2023-05-16T15:20:09;4.75;;;1.55;;
27921;SDS011;15261;50.356;10.340;2023-05-16T15:22:36;4.07;;;1.70;;
27921;SDS011;15261;50.356;10.340;2023-05-16T15:25:05;5.15;;;1.80;;
27921;SDS011;15261;50.356;10.340;2023-05-16T15:27:31;6.22;;;1.60;;
27921;SDS011;15261;50.356;10.340;2023-05-16T15:29:57;3.60;;;1.30;;
27921;SDS011;15261;50.356;10.340;2023-05-16T15:32:23;5.78;;;1.98;;
27921;SDS011;15261;50.356;10.340;2023-05-16T15:34:49;6.47;;;1.90;;
27921;SDS011;15261;50.356;10.340;2023-05-16T15:37:15;5.93;;;1.83;;
27921;SDS011;15261;50.356;10.340;2023-05-16T15:39:41;8.30;;;1.70;;
27921;SDS011;15261;50.356;10.340;2023-05-16T15:42:07;4.43;;;1.55;;
27921;SDS011;15261;50.356;10.340;2023-05-16T15:44:33;2.30;;;1.30;;
27921;SDS011;15261;50.356;10.340;2023-05-16T15:46:59;3.53;;;1.73;;
27921;SDS011;15261;50.356;10.340;2023-05-16T15:49:25;3.55;;;2.00;;
27921;SDS011;15261;50.356;10.340;2023-05-16T15:51:51;3.75;;;1.25;;
27921;SDS011;15261;50.356;10.340;2023-05-16T15:54:17;5.72;;;1.52;;
27921;SDS011;15261;50.356;10.340;2023-05-16T15:56:43;4.43;;;1.60;;
27921;SDS011;15261;50.356;10.340;2023-05-16T15:59:09;4.75;;;1.40;;
27921;SDS011;15261;50.356;10.340;2023-05-16T16:01:34;4.25;;;1.60;;
27921;SDS011;15261;50.356;10.340;2023-05-16T16:04:00;6.30;;;1.90;;
27921;SDS011;15261;50.356;10.340;2023-05-16T16:06:26;3.08;;;1.27;;
27921;SDS011;15261;50.356;10.340;2023-05-16T16:08:51;2.95;;;1.50;;
27921;SDS011;15261;50.356;10.340;2023-05-16T16:11:21;4.20;;;1.90;;
27921;SDS011;15261;50.356;10.340;2023-05-16T16:13:47;3.28;;;1.58;;
27921;SDS011;15261;50.356;10.340;2023-05-16T16:16:13;3.40;;;1.60;;
27921;SDS011;15261;50.356;10.340;2023-05-16T16:18:39;4.50;;;1.60;;
27921;SDS011;15261;50.356;10.340;2023-05-16T16:21:05;10.60;;;1.77;;
27921;SDS011;15261;50.356;10.340;2023-05-16T16:23:31;8.40;;;2.05;;
27921;SDS011;15261;50.356;10.340;2023-05-16T16:25:57;2.78;;;1.42;;
27921;SDS011;15261;50.356;10.340;2023-05-16T16:28:22;3.10;;;1.42;;
27921;SDS011;15261;50.356;10.340;2023-05-16T16:30:48;5.72;;;1.40;;
27921;SDS011;15261;50.356;10.340;2023-05-16T16:33:14;3.45;;;1.38;;
27921;SDS011;15261;50.356;10.340;2023-05-16T16:35:40;5.97;;;1.40;;
27921;SDS011;15261;50.356;10.340;2023-05-16T16:38:06;5.90;;;1.63;;
27921;SDS011;15261;50.356;10.340;2023-05-16T16:40:32;6.05;;;1.70;;
27921;SDS011;15261;50.356;10.340;2023-05-16T16:42:58;4.03;;;1.55;;
27921;SDS011;15261;50.356;10.340;2023-05-16T16:45:25;3.58;;;1.52;;
27921;SDS011;15261;50.356;10.340;2023-05-16T16:47:51;4.13;;;1.40;;
27921;SDS011;15261;50.356;10.340;2023-05-16T16:50:16;4.43;;;1.55;;
27921;SDS011;15261;50.356;10.340;2023-05-16T16:52:42;4.63;;;1.55;;
27921;SDS011;15261;50.356;10.340;2023-05-16T16:55:08;2.88;;;1.45;;
27921;SDS011;15261;50.356;10.340;2023-05-16T16:57:34;3.38;;;1.33;;
27921;SDS011;15261;50.356;10.340;2023-05-16T16:59:59;4.43;;;1.35;;
27921;SDS011;15261;50.356;10.340;2023-05-16T17:02:25;3.55;;;1.40;;
27921;SDS011;15261;50.356;10.340;2023-05-16T17:04:51;5.50;;;1.75;;
27921;SDS011;15261;50.356;10.340;2023-05-16T17:07:17;3.03;;;1.40;;
27921;SDS011;15261;50.356;10.340;2023-05-16T17:09:43;3.53;;;1.50;;
27921;SDS011;15261;50.356;10.340;2023-05-16T17:12:09;2.92;;;1.33;;
27921;SDS011;15261;50.356;10.340;2023-05-16T17:14:46;4.05;;;1.52;;
27921;SDS011;15261;50.356;10.340;2023-05-16T17:17:13;5.05;;;1.35;;
27921;SDS011;15261;50.356;10.340;2023-05-16T17:19:43;3.17;;;1.30;;
27921;SDS011;15261;50.356;10.340;2023-05-16T17:22:10;3.85;;;1.33;;
27921;SDS011;15261;50.356;10.340;2023-05-16T17:24:35;2.92;;;1.27;;
27921;SDS011;15261;50.356;10.340;2023-05-16T17:27:01;2.67;;;1.38;;
27921;SDS011;15261;50.356;10.340;2023-05-16T17:29:27;2.45;;;1.50;;
27921;SDS011;15261;50.356;10.340;2023-05-16T17:31:52;3.45;;;1.33;;
27921;SDS011;15261;50.356;10.340;2023-05-16T17:34:18;5.38;;;1.40;;
27921;SDS011;15261;50.356;10.340;2023-05-16T17:36:43;5.05;;;1.35;;
27921;SDS011;15261;50.356;10.340;2023-05-16T17:39:09;5.90;;;1.70;;
27921;SDS011;15261;50.356;10.340;2023-05-16T17:41:35;3.85;;;1.20;;
27921;SDS011;15261;50.356;10.340;2023-05-16T17:44:01;4.20;;;1.40;;
27921;SDS011;15261;50.356;10.340;2023-05-16T17:46:27;2.88;;;1.52;;
27921;SDS011;15261;50.356;10.340;2023-05-16T17:48:53;3.80;;;1.42;;
27921;SDS011;15261;50.356;10.340;2023-05-16T17:51:18;4.22;;;1.35;;
27921;SDS011;15261;50.356;10.340;2023-05-16T17:53:44;4.63;;;1.42;;
27921;SDS011;15261;50.356;10.340;2023-05-16T17:56:09;6.00;;;1.80;;
27921;SDS011;15261;50.356;10.340;2023-05-16T17:58:35;4.15;;;1.52;;
27921;SDS011;15261;50.356;10.340;2023-05-16T18:01:01;3.30;;;1.23;;
27921;SDS011;15261;50.356;10.340;2023-05-16T18:03:30;6.15;;;1.55;;
27921;SDS011;15261;50.356;10.340;2023-05-16T18:05:56;2.17;;;1.40;;
27921;SDS011;15261;50.356;10.340;2023-05-16T18:08:21;3.83;;;1.60;;
27921;SDS011;15261;50.356;10.340;2023-05-16T18:10:47;4.80;;;1.58;;
27921;SDS011;15261;50.356;10.340;2023-05-16T18:13:13;4.53;;;1.48;;
27921;SDS011;15261;50.356;10.340;2023-05-16T18:15:39;2.40;;;1.63;;
27921;SDS011;15261;50.356;10.340;2023-05-16T18:18:05;3.90;;;1.67;;
27921;SDS011;15261;50.356;10.340;2023-05-16T18:20:31;4.80;;;1.60;;
27921;SDS011;15261;50.356;10.340;2023-05-16T18:22:57;8.07;;;2.10;;
27921;SDS011;15261;50.356;10.340;2023-05-16T18:25:23;4.05;;;1.55;;
27921;SDS011;15261;50.356;10.340;2023-05-16T18:27:49;4.65;;;1.52;;
27921;SDS011;15261;50.356;10.340;2023-05-16T18:30:15;3.88;;;1.50;;
27921;SDS011;15261;50.356;10.340;2023-05-16T18:32:41;5.07;;;1.60;;
27921;SDS011;15261;50.356;10.340;2023-05-16T18:35:10;6.25;;;1.77;;
27921;SDS011;15261;50.356;10.340;2023-05-16T18:37:42;3.63;;;1.40;;
27921;SDS011;15261;50.356;10.340;2023-05-16T18:40:08;2.40;;;1.40;;
27921;SDS011;15261;50.356;10.340;2023-05-16T18:42:34;3.97;;;1.30;;
27921;SDS011;15261;50.356;10.340;2023-05-16T18:45:00;6.68;;;1.85;;
27921;SDS011;15261;50.356;10.340;2023-05-16T18:47:25;4.20;;;1.67;;
27921;SDS011;15261;50.356;10.340;2023-05-16T18:49:51;4.40;;;1.40;;
27921;SDS011;15261;50.356;10.340;2023-05-16T18:52:17;3.58;;;1.52;;
27921;SDS011;15261;50.356;10.340;2023-05-16T18:57:49;2.65;;;1.48;;
27921;SDS011;15261;50.356;10.340;2023-05-16T19:08:41;2.97;;;1.50;;
27921;SDS011;15261;50.356;10.340;2023-05-16T19:11:11;2.83;;;1.70;;
27921;SDS011;15261;50.356;10.340;2023-05-16T19:16:45;4.05;;;1.65;;
27921;SDS011;15261;50.356;10.340;2023-05-16T19:19:20;3.08;;;1.63;;
27921;SDS011;15261;50.356;10.340;2023-05-16T19:21:45;3.50;;;1.40;;
27921;SDS011;15261;50.356;10.340;2023-05-16T19:27:33;4.18;;;1.70;;
27921;SDS011;15261;50.356;10.340;2023-05-16T19:29:59;5.82;;;1.77;;
27921;SDS011;15261;50.356;10.340;2023-05-16T19:32:25;6.20;;;2.08;;
27921;SDS011;15261;50.356;10.340;2023-05-16T19:34:50;8.93;;;1.98;;
27921;SDS011;15261;50.356;10.340;2023-05-16T19:37:16;5.55;;;1.73;;
27921;SDS011;15261;50.356;10.340;2023-05-16T19:39:41;3.20;;;1.70;;
27921;SDS011;15261;50.356;10.340;2023-05-16T19:42:07;4.72;;;1.95;;
27921;SDS011;15261;50.356;10.340;2023-05-16T19:44:32;1.98;;;1.45;;
27921;SDS011;15261;50.356;10.340;2023-05-16T19:46:58;5.15;;;1.85;;
27921;SDS011;15261;50.356;10.340;2023-05-16T19:49:23;6.00;;;2.08;;
27921;SDS011;15261;50.356;10.340;2023-05-16T19:51:49;6.55;;;1.73;;
27921;SDS011;15261;50.356;10.340;2023-05-16T19:57:36;4.63;;;1.90;;
27921;SDS011;15261;50.356;10.340;2023-05-16T20:00:02;4.05;;;1.48;;
27921;SDS011;15261;50.356;10.340;2023-05-16T20:02:29;3.75;;;1.60;;
27921;SDS011;15261;50.356;10.340;2023-05-16T20:04:55;4.45;;;1.60;;
27921;SDS011;15261;50.356;10.340;2023-05-16T20:07:21;2.92;;;1.60;;
27921;SDS011;15261;50.356;10.340;2023-05-16T20:09:47;3.33;;;1.50;;
27921;SDS011;15261;50.356;10.340;2023-05-16T20:12:12;3.88;;;1.60;;
27921;SDS011;15261;50.356;10.340;2023-05-16T20:14:38;4.88;;;1.67;;
27921;SDS011;15261;50.356;10.340;2023-05-16T20:17:04;4.07;;;1.70;;
27921;SDS011;15261;50.356;10.340;2023-05-16T20:19:29;4.30;;;1.30;;
27921;SDS011;15261;50.356;10.340;2023-05-16T20:21:55;2.33;;;1.30;;
27921;SDS011;15261;50.356;10.340;2023-05-16T20:24:20;3.13;;;2.05;;
27921;SDS011;15261;50.356;10.340;2023-05-16T20:26:46;4.40;;;1.65;;
27921;SDS011;15261;50.356;10.340;2023-05-16T20:29:11;2.90;;;1.73;;
27921;SDS011;15261;50.356;10.340;2023-05-16T20:31:37;3.30;;;1.63;;
27921;SDS011;15261;50.356;10.340;2023-05-16T20:34:05;4.65;;;1.65;;
27921;SDS011;15261;50.356;10.340;2023-05-16T20:36:30;2.85;;;1.60;;
27921;SDS011;15261;50.356;10.340;2023-05-16T20:38:56;7.50;;;1.98;;
27921;SDS011;15261;50.356;10.340;2023-05-16T20:41:21;5.20;;;2.10;;
27921;SDS011;15261;50.356;10.340;2023-05-16T20:47:09;5.40;;;2.13;;
27921;SDS011;15261;50.356;10.340;2023-05-16T20:49:34;3.15;;;1.80;;
27921;SDS011;15261;50.356;10.340;2023-05-16T20:52:01;3.03;;;1.67;;
27921;SDS011;15261;50.356;10.340;2023-05-16T20:54:28;5.28;;;1.90;;
27921;SDS011;15261;50.356;10.340;2023-05-16T20:56:53;3.20;;;1.60;;
27921;SDS011;15261;50.356;10.340;2023-05-16T20:59:19;2.60;;;1.50;;